Time;durP1;ratioP1;P1;durP2;ratioP2;P2;SDS_P1;SDS_P2;PMS_P1;PMS_P2;Temp;Humidity;BMP_temperature;BMP_pressure;BME280_temperature;BME280_humidity;BME280_pressure;Samples;Min_cycle;Max_cycle;Signal;HPM_P1;HPM_P2
2021/10/05 00:02:09;;;;;;;2.33;1.10;;;;;;;12.27;85.56;99945.69;1694053;83;20919;-59
2021/10/05 00:04:36;;;;;;;3.90;1.20;;;;;;;12.24;85.53;99939.30;1689788;84;21053;-59
2021/10/05 00:07:03;;;;;;;2.20;0.80;;;;;;;12.17;85.31;99937.91;1702346;82;21017;-59
2021/10/05 00:09:30;;;;;;;1.30;0.65;;;;;;;12.15;85.25;99945.45;1702598;82;27211;-59
2021/10/05 00:11:57;;;;;;;1.10;0.53;;;;;;;12.16;85.29;99952.39;1699527;82;21058;-59
2021/10/05 00:14:24;;;;;;;2.52;1.00;;;;;;;12.17;85.21;99949.68;1675666;84;21543;-59
2021/10/05 00:16:50;;;;;;;2.05;0.78;;;;;;;12.17;85.19;99953.61;1704745;81;20949;-59
2021/10/05 00:19:17;;;;;;;4.27;1.00;;;;;;;12.20;85.15;99957.38;1698919;84;21054;-59
2021/10/05 00:21:44;;;;;;;2.63;0.60;;;;;;;12.23;85.15;99953.77;1703083;82;21745;-59
2021/10/05 00:24:11;;;;;;;1.95;0.60;;;;;;;12.24;85.10;99952.39;1684901;83;22053;-59
2021/10/05 00:26:39;;;;;;;1.65;0.68;;;;;;;12.23;85.04;99955.91;1699153;83;21636;-59
2021/10/05 00:29:06;;;;;;;3.15;0.93;;;;;;;12.20;84.95;99956.06;1700049;83;21070;-59
2021/10/05 00:31:32;;;;;;;3.75;1.07;;;;;;;12.13;84.80;99959.06;1675411;83;21006;-59
2021/10/05 00:33:59;;;;;;;3.35;0.80;;;;;;;12.04;84.80;99959.06;1700904;82;20897;-59
2021/10/05 00:36:26;;;;;;;6.60;1.10;;;;;;;12.00;84.82;99965.38;1698927;82;21075;-59
2021/10/05 00:38:54;;;;;;;2.05;0.72;;;;;;;11.99;84.89;99968.94;1700493;82;20962;-58
2021/10/05 00:41:21;;;;;;;4.42;0.95;;;;;;;11.93;84.84;99975.75;1700347;83;21010;-59
2021/10/05 00:43:48;;;;;;;1.37;0.62;;;;;;;11.94;84.95;99980.08;1700442;82;21069;-59
2021/10/05 00:46:21;;;;;;;3.45;0.93;;;;;;;11.93;84.99;99970.08;1705315;83;20957;-59
2021/10/05 00:48:45;;;;;;;2.20;1.10;;;;;;;11.91;85.06;99969.30;1739928;80;22089;-59
2021/10/05 00:51:12;;;;;;;3.27;1.10;;;;;;;11.90;85.07;99957.59;1698511;83;21093;-58
2021/10/05 00:53:40;;;;;;;3.17;1.37;;;;;;;11.90;85.12;99961.52;1701072;83;20959;-59
2021/10/05 00:56:08;;;;;;;5.03;1.50;;;;;;;11.90;85.18;99954.50;1703514;82;21015;-59
2021/10/05 00:58:35;;;;;;;3.77;1.20;;;;;;;11.90;85.18;99941.89;1704915;82;21715;-58
2021/10/05 01:01:02;;;;;;;3.22;1.27;;;;;;;11.91;85.27;99937.06;1701908;82;21107;-59
2021/10/05 01:03:29;;;;;;;2.77;1.37;;;;;;;11.91;85.29;99937.06;1699034;83;21018;-59
2021/10/05 01:05:56;;;;;;;3.00;1.70;;;;;;;11.88;85.43;99946.38;1700885;83;21156;-59
2021/10/05 01:08:23;;;;;;;3.33;1.30;;;;;;;11.82;85.37;99935.25;1699555;83;20978;-59
2021/10/05 01:10:51;;;;;;;2.75;1.30;;;;;;;11.78;85.53;99934.16;1698009;83;21104;-59
2021/10/05 01:13:18;;;;;;;2.95;1.85;;;;;;;11.76;85.68;99936.86;1692547;83;21099;-59
2021/10/05 01:15:45;;;;;;;4.87;2.15;;;;;;;11.70;85.69;99918.82;1684020;83;21039;-59
2021/10/05 01:18:12;;;;;;;3.70;2.15;;;;;;;11.70;85.76;99922.75;1700672;82;21046;-59
2021/10/05 01:21:01;;;;;;;3.85;1.80;;;;;;;11.69;85.96;99921.06;1698422;83;21530;-58
2021/10/05 01:23:30;;;;;;;5.65;2.10;;;;;;;11.69;85.99;99921.06;1652569;85;21050;-59
2021/10/05 01:25:57;;;;;;;4.10;2.20;;;;;;;11.66;86.04;99930.38;1645530;86;21545;-59
2021/10/05 01:28:26;;;;;;;3.50;2.08;;;;;;;11.63;86.25;99929.22;1650114;85;21081;-59
2021/10/05 01:30:54;;;;;;;4.20;2.10;;;;;;;11.60;86.32;99926.75;1646277;85;21571;-59
2021/10/05 01:33:25;;;;;;;5.87;1.98;;;;;;;11.59;86.79;99927.18;1624195;86;21054;-59
2021/10/05 01:35:52;;;;;;;5.62;2.35;;;;;;;11.57;86.59;99908.13;1647958;85;21509;-59
2021/10/05 01:38:20;;;;;;;4.03;1.95;;;;;;;11.58;86.66;99903.73;1620208;86;22403;-60
2021/10/05 01:40:48;;;;;;;3.10;1.80;;;;;;;11.56;87.38;99908.19;1636322;86;21125;-59
2021/10/05 01:43:15;;;;;;;5.50;2.60;;;;;;;11.55;86.95;99906.50;1639007;86;21570;-59
2021/10/05 01:45:42;;;;;;;4.75;2.50;;;;;;;11.53;86.90;99911.80;1637894;86;21540;-59
2021/10/05 01:48:09;;;;;;;;;;;;;;;11.53;86.95;99905.72;1611481;87;21054;-59
2021/10/05 01:50:36;;;;;;;4.87;2.58;;;;;;;11.53;87.12;99900.49;1623951;86;21286;-59
2021/10/05 01:53:04;;;;;;;;;;;;;;;11.51;87.15;99895.79;1650543;85;21524;-60
2021/10/05 01:55:31;;;;;;;;;;;;;;;11.53;87.11;99905.72;1654236;85;20126;-59
2021/10/05 01:57:58;;;;;;;4.45;2.92;;;;;;;11.53;87.18;99905.72;1630419;86;20181;-59
2021/10/05 02:00:25;;;;;;;5.33;3.95;;;;;;;11.55;87.19;99906.50;1695345;83;22279;-59
2021/10/05 02:02:53;;;;;;;5.30;2.90;;;;;;;11.57;87.19;99905.98;1674948;85;21074;-59
2021/10/05 02:05:21;;;;;;;6.25;2.90;;;;;;;11.57;87.30;99909.91;1641463;86;21623;-59
2021/10/05 02:07:48;;;;;;;8.50;3.45;;;;;;;11.57;87.24;99909.91;1688122;83;20955;-59
2021/10/05 02:10:15;;;;;;;6.72;3.35;;;;;;;11.57;87.35;99900.75;1675225;84;21088;-59
2021/10/05 02:12:42;;;;;;;4.30;3.20;;;;;;;11.58;87.33;99905.05;1675344;84;21085;-60
2021/10/05 02:15:09;;;;;;;5.03;3.20;;;;;;;11.58;87.48;99896.73;1674647;84;21419;-59
2021/10/05 02:17:35;;;;;;;;;;;;;;;11.56;87.35;99893.34;1680109;84;21472;-59
2021/10/05 02:20:05;;;;;;;6.33;3.10;;;;;;;11.53;87.46;99884.80;1677838;84;20144;-59
2021/10/05 02:22:32;;;;;;;8.05;3.30;;;;;;;11.52;87.50;99883.12;1672953;84;21694;-59
2021/10/05 02:24:59;;;;;;;4.75;2.70;;;;;;;11.52;87.51;99872.20;1676091;84;22527;-59
2021/10/05 02:27:28;;;;;;;5.95;2.92;;;;;;;11.53;87.64;99869.11;1682932;83;21260;-59
2021/10/05 02:29:55;;;;;;;4.37;2.72;;;;;;;11.53;87.61;99876.95;1685708;83;21004;-59
2021/10/05 02:32:22;;;;;;;4.33;2.70;;;;;;;11.54;87.63;99870.80;1687818;83;20947;-59
2021/10/05 02:34:48;;;;;;;3.42;2.22;;;;;;;11.54;87.64;99868.18;1683888;84;21035;-59
2021/10/05 02:37:15;;;;;;;7.00;2.20;;;;;;;11.57;87.74;99870.67;1687852;83;20992;-60
2021/10/05 02:39:42;;;;;;;4.92;2.52;;;;;;;11.58;87.71;99873.66;1658834;84;22261;-60
2021/10/05 02:42:09;;;;;;;;;;;;;;;11.61;87.84;99888.73;1688255;83;21560;-60
2021/10/05 02:44:39;;;;;;;4.35;2.72;;;;;;;11.66;87.96;99889.83;1672912;84;20440;-59
2021/10/05 02:47:08;;;;;;;5.55;3.20;;;;;;;11.69;87.95;99889.67;1680032;84;21024;-59
2021/10/05 02:49:36;;;;;;;6.05;2.85;;;;;;;11.69;87.98;99888.37;1674558;84;21005;-60
2021/10/05 02:52:04;;;;;;;4.72;3.05;;;;;;;11.71;88.03;99894.37;1677221;84;21505;-60
2021/10/05 02:54:30;;;;;;;5.37;2.67;;;;;;;11.75;88.03;99893.76;1677834;84;20973;-59
2021/10/05 02:56:57;;;;;;;4.47;2.67;;;;;;;11.77;88.05;99892.77;1675215;83;21078;-59
2021/10/05 02:59:24;;;;;;;4.70;2.52;;;;;;;11.73;88.11;99874.20;1677745;84;21012;-59
2021/10/05 03:01:51;;;;;;;6.55;2.55;;;;;;;11.84;88.10;99889.38;1677329;84;21052;-59
2021/10/05 03:04:18;;;;;;;3.33;2.30;;;;;;;11.85;88.17;99881.49;1641166;84;21302;-60
2021/10/05 03:06:45;;;;;;;3.80;2.45;;;;;;;11.86;88.16;99881.86;1664266;84;21091;-59
2021/10/05 03:09:12;;;;;;;;;;;;;;;11.90;88.25;99885.16;1667583;83;21612;-59
2021/10/05 03:11:39;;;;;;;5.97;3.03;;;;;;;11.95;88.31;99877.09;1664174;84;20105;-59
2021/10/05 03:14:07;;;;;;;5.65;2.60;;;;;;;11.98;88.24;99879.55;1662976;83;21083;-59
2021/10/05 03:16:34;;;;;;;5.05;2.30;;;;;;;12.03;88.31;99876.25;1664655;84;22381;-60
2021/10/05 03:19:00;;;;;;;8.73;3.58;;;;;;;12.08;88.32;99879.48;1663124;83;21528;-60
2021/10/05 03:21:27;;;;;;;5.40;2.27;;;;;;;12.12;88.33;99867.92;1637947;84;21027;-59
2021/10/05 03:23:54;;;;;;;4.80;2.67;;;;;;;12.15;88.37;99866.45;1663457;84;20970;-59
2021/10/05 03:26:21;;;;;;;6.97;2.65;;;;;;;12.18;88.32;99870.22;1663460;84;21085;-59
2021/10/05 03:28:48;;;;;;;4.40;2.62;;;;;;;12.21;88.31;99864.84;1638591;85;21231;-59
2021/10/05 03:31:18;;;;;;;4.95;2.95;;;;;;;12.23;88.36;99860.36;1659340;86;21553;-59
2021/10/05 03:33:46;;;;;;;9.93;2.90;;;;;;;12.23;88.42;99862.98;1664833;85;21351;-59
2021/10/05 03:36:15;;;;;;;5.10;3.27;;;;;;;12.24;88.41;99851.59;1632295;86;20995;-59
2021/10/05 03:38:44;;;;;;;5.58;3.10;;;;;;;12.25;88.43;99842.81;1635996;85;21571;-59
2021/10/05 03:41:12;;;;;;;7.50;3.45;;;;;;;12.27;88.42;99835.73;1669659;83;22381;-59
2021/10/05 03:43:39;;;;;;;4.72;3.05;;;;;;;12.27;88.41;99830.49;1646479;85;21013;-59
2021/10/05 03:46:07;;;;;;;;;;;;;;;12.27;88.46;99825.25;1668530;84;21121;-59
2021/10/05 03:48:34;;;;;;;8.00;3.55;;;;;;;12.26;88.51;99827.47;1662281;84;20485;-59
2021/10/05 03:51:02;;;;;;;4.97;3.25;;;;;;;12.24;88.62;99816.26;1665240;84;21100;-59
2021/10/05 03:53:29;;;;;;;9.23;3.80;;;;;;;12.24;88.63;99808.88;1664086;84;21060;-59
2021/10/05 03:55:58;;;;;;;10.60;5.35;;;;;;;12.25;88.56;99803.54;1647266;85;21019;-59
2021/10/05 03:58:27;;;;;;;10.53;4.85;;;;;;;12.24;88.55;99801.02;1625872;86;21058;-59
2021/10/05 04:00:54;;;;;;;9.10;5.92;;;;;;;12.23;88.67;99804.08;1656729;84;20955;-59
2021/10/05 04:03:23;;;;;;;;;;;;;;;12.22;88.64;99797.16;1673923;84;20955;-59
2021/10/05 04:05:51;;;;;;;10.32;5.67;;;;;;;12.21;88.89;99798.09;1690724;83;21302;-59
2021/10/05 04:08:18;;;;;;;9.90;6.00;;;;;;;12.19;88.88;99803.87;1692305;83;21586;-59
2021/10/05 04:10:45;;;;;;;11.55;6.12;;;;;;;12.18;88.97;99799.54;1694142;83;20959;-59
2021/10/05 04:13:12;;;;;;;11.05;6.12;;;;;;;12.19;89.07;99805.64;1694126;84;21595;-59
2021/10/05 04:15:39;;;;;;;10.48;5.85;;;;;;;12.21;89.16;99802.46;1694332;83;20933;-59
2021/10/05 04:18:06;;;;;;;10.47;5.93;;;;;;;12.23;89.25;99805.38;1682691;83;21425;-59
2021/10/05 04:20:33;;;;;;;;;;;;;;;12.25;89.29;99800.08;1691193;83;21492;-60
2021/10/05 04:22:59;;;;;;;8.78;4.90;;;;;;;12.28;89.32;99799.92;1687594;83;20113;-59
2021/10/05 04:25:26;;;;;;;8.98;5.58;;;;;;;12.26;89.26;99792.12;1680968;84;21020;-59
2021/10/05 04:27:53;;;;;;;11.10;6.37;;;;;;;12.26;89.31;99789.52;1693953;83;20960;-59
2021/10/05 04:30:20;;;;;;;16.23;7.55;;;;;;;12.28;89.36;99785.05;1698147;83;21265;-59
2021/10/05 04:32:47;;;;;;;14.03;7.77;;;;;;;12.29;89.33;99771.05;1676535;84;20907;-59
2021/10/05 04:35:14;;;;;;;11.28;7.62;;;;;;;12.30;89.34;99767.49;1695268;83;20924;-59
2021/10/05 04:37:41;;;;;;;11.38;6.95;;;;;;;12.31;89.38;99768.33;1695470;83;20987;-59
2021/10/05 04:40:10;;;;;;;15.90;7.83;;;;;;;12.31;89.29;99773.57;1695795;83;21016;-60
2021/10/05 04:42:37;;;;;;;15.80;8.98;;;;;;;12.29;89.41;99776.29;1674839;83;21116;-59
2021/10/05 04:45:05;;;;;;;15.17;9.40;;;;;;;12.30;89.53;99780.58;1691463;83;20965;-59
2021/10/05 04:47:32;;;;;;;15.23;9.35;;;;;;;12.30;89.54;99777.97;1657600;85;21019;-60
2021/10/05 04:49:59;;;;;;;15.13;8.20;;;;;;;12.33;89.58;99773.50;1683362;84;20996;-59
2021/10/05 04:52:26;;;;;;;18.37;9.85;;;;;;;12.31;89.51;99769.17;1682484;84;20996;-59
2021/10/05 04:54:53;;;;;;;19.12;11.00;;;;;;;12.33;89.67;99765.64;1681316;83;22111;-59
2021/10/05 04:57:19;;;;;;;14.63;9.75;;;;;;;12.33;89.69;99763.03;1681801;84;21507;-59
2021/10/05 04:59:46;;;;;;;13.72;9.78;;;;;;;12.34;89.76;99759.00;1680226;84;20996;-59
2021/10/05 05:02:13;;;;;;;15.10;10.08;;;;;;;12.35;89.74;99763.77;1644003;84;21093;-59
2021/10/05 05:04:40;;;;;;;16.20;11.27;;;;;;;12.36;89.79;99772.02;1675723;84;20949;-59
2021/10/05 05:07:07;;;;;;;19.92;11.43;;;;;;;12.36;89.83;99761.55;1647783;84;21148;-59
2021/10/05 05:09:34;;;;;;;19.92;12.63;;;;;;;12.37;89.82;99771.08;1649538;84;21005;-59
2021/10/05 05:12:00;;;;;;;26.52;12.75;;;;;;;12.37;89.94;99765.84;1678143;84;21035;-59
2021/10/05 05:14:27;;;;;;;21.35;13.13;;;;;;;12.38;89.99;99766.22;1677770;84;21615;-59
2021/10/05 05:16:54;;;;;;;;;;;;;;;12.39;90.02;99756.14;1679298;84;21469;-59
2021/10/05 05:19:21;;;;;;;21.63;14.57;;;;;;;12.39;90.00;99746.98;1679019;84;21098;-59
2021/10/05 05:21:48;;;;;;;22.17;13.70;;;;;;;12.38;90.01;99745.27;1676937;84;21613;-58
2021/10/05 05:24:15;;;;;;;24.92;15.05;;;;;;;12.36;90.14;99740.13;1673358;84;21024;-58
2021/10/05 05:26:42;;;;;;;23.62;15.95;;;;;;;12.36;90.14;99740.13;1691764;83;29156;-58
2021/10/05 05:29:08;;;;;;;19.35;14.93;;;;;;;12.39;90.27;99741.75;1684353;83;21050;-58
2021/10/05 05:31:35;;;;;;;22.47;16.50;;;;;;;12.40;90.36;99738.19;1683568;83;21078;-58
2021/10/05 05:34:02;;;;;;;22.25;15.68;;;;;;;12.40;90.45;99739.50;1674950;84;21883;-58
2021/10/05 05:36:29;;;;;;;21.73;16.62;;;;;;;12.41;90.47;99743.36;1674483;84;21025;-58
2021/10/05 05:38:56;;;;;;;27.52;17.70;;;;;;;12.44;90.50;99743.19;1677339;84;21048;-58
2021/10/05 05:41:22;;;;;;;28.90;17.30;;;;;;;12.46;90.62;99738.72;1675400;84;21574;-58
2021/10/05 05:43:49;;;;;;;30.68;18.42;;;;;;;12.50;90.62;99739.38;1675311;84;21799;-58
2021/10/05 05:46:16;;;;;;;26.07;18.92;;;;;;;12.49;90.63;99738.55;1676473;84;21075;-58
2021/10/05 05:48:44;;;;;;;32.78;19.80;;;;;;;12.48;90.70;99734.69;1671681;84;21003;-58
2021/10/05 05:51:13;;;;;;;28.17;20.72;;;;;;;12.49;90.76;99735.05;1674513;84;20978;-56
2021/10/05 05:53:40;;;;;;;28.25;20.82;;;;;;;12.51;90.81;99734.52;1679531;84;21664;-56
2021/10/05 05:56:06;;;;;;;32.90;21.60;;;;;;;12.51;90.96;99725.34;1686918;83;21436;-56
2021/10/05 05:58:33;;;;;;;27.87;21.80;;;;;;;12.52;90.99;99721.82;1689961;83;21592;-56
2021/10/05 06:01:00;;;;;;;31.30;23.20;;;;;;;12.54;91.01;99717.32;1675304;83;20976;-56
2021/10/05 06:03:26;;;;;;;36.73;24.77;;;;;;;12.53;91.01;99714.33;1672488;84;21093;-56
2021/10/05 06:06:01;;;;;;;31.57;23.90;;;;;;;12.53;91.19;99720.88;1648322;85;21078;-56
2021/10/05 06:08:21;;;;;;;33.40;24.80;;;;;;;12.53;91.27;99712.55;1644121;85;22166;-56
2021/10/05 06:10:48;;;;;;;36.67;25.70;;;;;;;12.57;91.24;99706.67;1647288;85;20968;-56
2021/10/05 06:13:15;;;;;;;39.45;26.52;;;;;;;12.58;91.45;99707.07;1645985;85;20987;-57
2021/10/05 06:15:42;;;;;;;38.87;26.87;;;;;;;12.57;91.50;99704.52;1647690;85;21139;-56
2021/10/05 06:18:09;;;;;;;39.23;27.62;;;;;;;12.58;91.54;99708.38;1645174;85;21059;-57
2021/10/05 06:20:36;;;;;;;37.05;27.17;;;;;;;12.53;91.80;99693.38;1646090;85;22353;-56
2021/10/05 06:23:02;;;;;;;41.73;27.58;;;;;;;12.58;91.66;99700.52;1648328;85;21059;-56
2021/10/05 06:25:39;;;;;;;35.73;28.00;;;;;;;12.57;91.73;99708.45;1645906;85;21046;-56
2021/10/05 06:28:03;;;;;;;35.13;26.60;;;;;;;12.58;91.72;99705.77;1637099;85;21015;-57
2021/10/05 06:30:30;;;;;;;33.13;25.82;;;;;;;12.56;91.66;99706.77;1638879;85;21019;-56
2021/10/05 06:32:57;;;;;;;35.20;25.08;;;;;;;12.53;91.54;99694.69;1641683;85;21299;-57
2021/10/05 06:35:28;;;;;;;33.18;25.12;;;;;;;12.51;91.41;99684.75;1642094;85;21028;-57
2021/10/05 06:37:57;;;;;;;30.90;22.30;;;;;;;12.51;91.38;99684.75;1638048;85;21015;-56
2021/10/05 06:40:27;;;;;;;29.15;22.65;;;;;;;12.52;91.35;99680.76;1646208;85;21177;-57
2021/10/05 06:42:54;;;;;;;33.98;22.93;;;;;;;12.52;91.32;99678.61;1641723;85;21603;-56
2021/10/05 06:45:22;;;;;;;28.23;22.55;;;;;;;12.53;91.32;99673.73;1646337;85;21100;-56
2021/10/05 06:47:49;;;;;;;32.45;22.15;;;;;;;12.50;91.25;99669.98;1648384;85;21535;-56
2021/10/05 06:50:17;;;;;;;29.57;20.25;;;;;;;12.51;91.21;99668.58;1643235;85;21028;-56
2021/10/05 06:52:44;;;;;;;32.75;19.70;;;;;;;12.52;91.23;99669.44;1622305;87;21044;-57
2021/10/05 06:55:10;;;;;;;;;;;;;;;12.52;91.23;99669.44;1646879;85;21027;-56
2021/10/05 06:57:37;;;;;;;36.63;22.30;;;;;;;12.56;91.16;99669.63;1646325;85;21272;-57
2021/10/05 07:00:15;;;;;;;30.43;18.90;;;;;;;12.60;91.16;99671.61;1646252;85;21542;-56
2021/10/05 07:02:48;;;;;;;21.97;18.32;;;;;;;12.60;90.93;99661.97;1644507;85;21015;-57
2021/10/05 07:05:18;;;;;;;22.05;18.98;;;;;;;12.57;90.88;99664.77;1665879;83;21028;-59
2021/10/05 07:07:48;;;;;;;19.80;17.70;;;;;;;12.53;90.82;99659.33;1677198;84;21009;-62
2021/10/05 07:10:18;;;;;;;22.13;17.95;;;;;;;12.53;90.88;99656.72;1675487;84;21439;-60
2021/10/05 07:12:45;;;;;;;26.33;19.00;;;;;;;12.57;90.97;99658.22;1678483;84;21132;-62
2021/10/05 07:15:33;;;;;;;23.27;18.42;;;;;;;12.64;91.06;99646.95;1678183;84;21166;-60
2021/10/05 07:18:01;;;;;;;26.48;18.95;;;;;;;12.71;90.84;99646.48;1582745;88;21123;-61
2021/10/05 07:20:30;;;;;;;32.35;20.90;;;;;;;12.72;90.75;99653.43;1649320;84;21123;-61
2021/10/05 07:22:59;;;;;;;26.80;19.45;;;;;;;12.76;90.66;99649.69;1608621;87;21151;-61
2021/10/05 07:25:29;;;;;;;23.50;19.42;;;;;;;12.82;90.51;99650.27;1651668;85;21004;-65
2021/10/05 07:27:57;;;;;;;26.33;18.52;;;;;;;12.84;90.46;99653.66;1658618;85;21760;-60
2021/10/05 07:30:25;;;;;;;31.60;18.12;;;;;;;12.84;90.17;99643.18;1604283;86;21096;-61
2021/10/05 07:32:55;;;;;;;24.10;17.48;;;;;;;12.84;90.17;99643.18;1650768;85;21016;-63
2021/10/05 07:35:22;;;;;;;20.30;17.85;;;;;;;12.82;90.05;99645.03;1651244;85;21269;-62
2021/10/05 07:37:49;;;;;;;37.47;18.70;;;;;;;12.88;90.32;99649.91;1648199;85;21178;-61
2021/10/05 07:40:18;;;;;;;22.60;17.32;;;;;;;12.99;90.29;99642.27;1655279;84;21110;-62
2021/10/05 07:43:06;;;;;;;23.60;17.40;;;;;;;13.02;89.84;99639.47;1650593;85;21118;-62
2021/10/05 07:45:34;;;;;;;23.45;18.60;;;;;;;13.07;90.14;99620.39;1625092;85;21206;-63
2021/10/05 07:48:02;;;;;;;22.02;17.95;;;;;;;13.07;90.14;99620.39;1626283;85;21123;-63
2021/10/05 07:50:29;;;;;;;24.67;18.75;;;;;;;13.42;90.41;99631.91;1624308;85;21143;-63
2021/10/05 07:52:56;;;;;;;23.62;17.75;;;;;;;13.60;89.87;99630.77;1624359;85;21660;-64
2021/10/05 07:55:23;;;;;;;28.80;18.85;;;;;;;13.80;89.96;99626.08;1626913;85;21134;-63
2021/10/05 07:57:49;;;;;;;24.97;18.63;;;;;;;13.92;89.04;99627.95;1624708;85;21144;-64
2021/10/05 08:00:17;;;;;;;25.15;19.98;;;;;;;13.92;89.04;99627.95;1623173;85;22421;-64
2021/10/05 08:02:45;;;;;;;23.20;19.00;;;;;;;13.91;88.54;99622.31;1603083;86;21097;-64
2021/10/05 08:05:15;;;;;;;27.37;18.95;;;;;;;13.80;88.27;99628.70;1622457;85;21509;-64
2021/10/05 08:07:40;;;;;;;29.40;20.85;;;;;;;13.78;88.66;99625.32;1618245;86;21162;-64
2021/10/05 08:10:09;;;;;;;26.87;20.17;;;;;;;13.77;88.56;99626.27;1619108;86;21164;-64
2021/10/05 08:12:37;;;;;;;26.70;19.55;;;;;;;13.80;88.56;99629.55;1624990;84;21259;-64
2021/10/05 08:15:04;;;;;;;;;;;;;;;13.91;88.85;99621.00;1680860;83;20967;-65
2021/10/05 08:17:31;;;;;;;23.50;19.80;;;;;;;13.92;87.81;99617.46;1679660;83;20103;-64
2021/10/05 08:19:57;;;;;;;26.93;21.15;;;;;;;13.81;88.01;99612.05;1677859;83;21078;-65
2021/10/05 08:22:25;;;;;;;26.02;19.45;;;;;;;13.80;88.12;99608.55;1678266;83;21088;-64
2021/10/05 08:24:53;;;;;;;30.27;21.82;;;;;;;13.88;88.40;99605.45;1683276;83;21173;-64
2021/10/05 08:27:20;;;;;;;26.25;23.30;;;;;;;13.97;88.25;99596.98;1679242;83;21790;-65
2021/10/05 08:29:48;;;;;;;28.10;23.57;;;;;;;13.95;87.55;99594.95;1677415;83;20954;-64
2021/10/05 08:32:16;;;;;;;32.75;23.32;;;;;;;13.82;87.55;99600.59;1675826;83;20971;-64
2021/10/05 08:34:43;;;;;;;;;;;;;;;13.81;87.57;99596.30;1682364;83;21057;-64
2021/10/05 08:37:10;;;;;;;27.90;23.02;;;;;;;13.87;87.75;99605.09;1676160;83;21226;-64
2021/10/05 08:39:36;;;;;;;30.72;24.77;;;;;;;13.98;87.97;99589.51;1676495;83;22160;-64
2021/10/05 08:42:05;;;;;;;30.40;25.27;;;;;;;14.09;87.90;99590.98;1678648;83;20974;-64
2021/10/05 08:44:33;;;;;;;33.35;25.32;;;;;;;14.25;88.08;99600.48;1680499;82;21015;-64
2021/10/05 08:47:00;;;;;;;28.17;23.77;;;;;;;14.51;88.36;99597.02;1681734;83;20922;-64
2021/10/05 08:49:27;;;;;;;29.02;23.83;;;;;;;14.78;87.94;99589.59;1678206;83;21147;-65
2021/10/05 08:51:56;;;;;;;28.15;24.87;;;;;;;14.93;87.37;99585.95;1681008;83;21070;-65
2021/10/05 08:54:23;;;;;;;30.62;24.23;;;;;;;14.95;86.20;99585.34;1683121;83;21026;-64
2021/10/05 08:56:50;;;;;;;33.42;23.67;;;;;;;14.92;86.43;99585.56;1678276;83;20944;-65
2021/10/05 08:59:17;;;;;;;30.35;23.95;;;;;;;15.08;87.15;99584.06;1683022;83;21617;-65
2021/10/05 09:04:03;;;;;;;39.80;26.10;;;;;;;15.67;86.44;99569.86;1852113;75;27731;-64
2021/10/05 09:06:44;;;;;;;32.25;25.20;;;;;;;15.84;85.80;99573.12;1840340;76;20920;-64
2021/10/05 09:09:06;;;;;;;34.90;24.02;;;;;;;15.85;85.59;99567.75;1834723;77;21300;-65
2021/10/05 09:11:53;;;;;;;27.98;24.98;;;;;;;15.87;84.83;99568.47;1839137;76;20942;-65
2021/10/05 09:14:20;;;;;;;;;;;;;;;15.58;84.39;99561.78;1844071;76;21041;-64
2021/10/05 09:16:47;;;;;;;;;;;;;;;15.18;83.88;99562.77;1840970;77;20156;-64
2021/10/05 09:19:17;;;;;;;29.80;24.77;;;;;;;15.06;84.97;99565.39;1842660;77;20528;-64
2021/10/05 09:21:56;;;;;;;42.08;27.85;;;;;;;15.00;85.12;99561.39;1841000;76;22359;-64
2021/10/05 09:24:32;;;;;;;33.70;25.20;;;;;;;15.07;85.54;99561.80;1837797;76;21019;-64
2021/10/05 09:27:02;;;;;;;34.10;25.68;;;;;;;15.20;84.92;99546.87;1840236;77;21010;-64
2021/10/05 09:29:32;;;;;;;35.20;26.77;;;;;;;15.43;85.26;99540.86;1833311;76;21010;-64
2021/10/05 09:32:14;;;;;;;36.25;26.12;;;;;;;15.52;84.04;99530.64;1839843;77;20982;-64
2021/10/05 09:34:51;;;;;;;33.60;25.88;;;;;;;15.50;83.90;99522.01;1830960;76;21966;-64
2021/10/05 09:37:25;;;;;;;29.90;24.63;;;;;;;15.36;83.83;99522.98;1840737;77;21009;-63
2021/10/05 09:39:57;;;;;;;26.60;23.73;;;;;;;15.39;83.84;99513.08;1843372;76;20982;-64
2021/10/05 09:42:29;;;;;;;29.63;24.80;;;;;;;15.28;83.69;99512.98;1837398;77;21059;-64
2021/10/05 09:45:00;;;;;;;37.78;25.43;;;;;;;15.28;84.00;99509.05;1838828;76;20928;-64
2021/10/05 09:47:41;;;;;;;31.25;24.45;;;;;;;15.31;84.04;99510.14;1841116;76;21582;-64
2021/10/05 09:50:16;;;;;;;29.25;23.35;;;;;;;15.34;83.77;99513.87;1852474;76;20983;-64
2021/10/05 09:52:47;;;;;;;38.10;23.42;;;;;;;15.29;83.65;99504.17;1844558;76;20937;-64
2021/10/05 09:55:17;;;;;;;28.15;22.67;;;;;;;15.19;82.92;99497.86;1843479;76;20914;-63
2021/10/05 09:57:44;;;;;;;28.23;21.35;;;;;;;15.11;83.15;99497.55;1840140;76;21032;-63
2021/10/05 10:00:12;;;;;;;;;;;;;;;15.11;83.41;99485.23;1844097;77;21044;-64
2021/10/05 10:02:42;;;;;;;24.80;22.00;;;;;;;15.24;83.61;99474.71;1830799;77;20091;-63
2021/10/05 10:05:12;;;;;;;34.95;22.42;;;;;;;15.32;83.38;99474.14;1814496;77;21654;-64
2021/10/05 10:07:43;;;;;;;24.55;20.88;;;;;;;15.33;83.12;99463.53;1814043;77;20973;-64
2021/10/05 10:10:16;;;;;;;27.45;18.82;;;;;;;15.42;83.31;99470.77;1809296;77;20963;-64
2021/10/05 10:12:56;;;;;;;23.40;20.55;;;;;;;15.59;83.20;99477.93;1822601;77;21478;-64
2021/10/05 10:21:45;;;;;;;24.80;18.30;;;;;;;15.94;82.68;99473.26;1834913;76;25234;-64
2021/10/05 10:25:11;;;;;;;23.02;16.93;;;;;;;16.04;82.92;99471.61;1864683;75;23422;-61
2021/10/05 10:27:45;;;;;;;19.37;16.42;;;;;;;16.11;82.88;99473.69;1840120;77;20928;-66
2021/10/05 10:30:13;;;;;;;23.12;16.30;;;;;;;16.18;82.13;99467.47;1819106;77;22762;-64
2021/10/05 10:32:45;;;;;;;18.92;15.80;;;;;;;16.04;81.49;99461.08;1834692;77;20947;-64
2021/10/05 10:35:13;;;;;;;24.45;16.42;;;;;;;15.93;81.79;99464.50;1832030;76;20978;-64
2021/10/05 10:37:52;;;;;;;23.67;14.95;;;;;;;15.92;82.06;99467.26;1836149;77;20959;-64
2021/10/05 10:40:37;;;;;;;29.10;16.35;;;;;;;16.02;82.55;99460.34;1831934;77;21481;-65
2021/10/05 10:43:17;;;;;;;25.10;17.00;;;;;;;16.25;82.18;99451.59;1831981;77;21118;-64
2021/10/05 10:45:48;;;;;;;18.12;14.05;;;;;;;16.50;82.30;99447.10;1824947;77;20989;-64
2021/10/05 10:48:34;;;;;;;26.85;15.00;;;;;;;16.78;82.45;99444.05;1834755;77;20930;-64
2021/10/05 10:51:15;;;;;;;18.25;13.88;;;;;;;17.04;82.10;99432.44;1828121;77;21631;-64
2021/10/05 10:53:44;;;;;;;18.85;14.10;;;;;;;17.04;80.63;99433.75;1833378;76;21191;-65
2021/10/05 10:57:05;;;;;;;18.35;13.18;;;;;;;16.98;79.84;99420.56;1860599;75;22124;-63
2021/10/05 10:59:34;;;;;;;17.30;12.23;;;;;;;16.83;80.35;99421.75;1810005;77;21387;-63
2021/10/05 11:02:22;;;;;;;27.07;13.35;;;;;;;16.70;80.12;99418.72;1817994;76;21033;-62
2021/10/05 11:04:46;;;;;;;15.60;12.35;;;;;;;16.74;80.26;99416.20;1820730;76;20935;-62
2021/10/05 11:07:13;;;;;;;18.05;12.90;;;;;;;16.61;79.21;99410.22;1823772;76;20945;-63
2021/10/05 11:09:43;;;;;;;27.62;12.93;;;;;;;16.49;78.01;99394.02;1822725;77;21148;-63
2021/10/05 11:12:15;;;;;;;21.85;12.90;;;;;;;16.46;79.60;99408.75;1825842;77;21046;-63
2021/10/05 11:14:44;;;;;;;20.90;11.65;;;;;;;16.60;79.10;99403.25;1822929;77;21520;-63
2021/10/05 11:17:11;;;;;;;20.77;12.23;;;;;;;16.62;78.58;99401.34;1813531;76;21637;-63
2021/10/05 11:19:41;;;;;;;19.70;11.33;;;;;;;16.64;79.10;99406.02;1822017;77;20993;-63
2021/10/05 11:22:12;;;;;;;17.17;11.60;;;;;;;16.74;79.14;99397.74;1820677;76;21101;-63
2021/10/05 11:24:46;;;;;;;18.62;13.13;;;;;;;16.95;79.16;99400.55;1817111;77;21115;-64
2021/10/05 11:27:22;;;;;;;19.07;12.37;;;;;;;17.14;79.06;99389.38;1825195;76;21060;-63
2021/10/05 11:29:50;;;;;;;18.63;12.93;;;;;;;17.18;78.59;99385.52;1820584;77;20994;-63
2021/10/05 11:32:20;;;;;;;21.93;11.50;;;;;;;17.11;77.43;99379.08;1817867;78;21163;-63
2021/10/05 11:34:50;;;;;;;23.50;12.35;;;;;;;17.00;77.80;99379.09;1828243;77;21568;-63
2021/10/05 11:37:20;;;;;;;16.23;11.43;;;;;;;16.95;77.92;99378.61;1820120;78;21329;-63
2021/10/05 11:39:49;;;;;;;23.35;11.83;;;;;;;16.90;77.18;99368.42;1812814;78;21064;-63
2021/10/05 11:42:20;;;;;;;16.48;12.20;;;;;;;16.90;77.79;99371.54;1815185;77;21540;-63
2021/10/05 11:45:00;;;;;;;17.00;11.12;;;;;;;16.86;76.64;99355.59;1812171;77;20991;-62